Time;durP1;ratioP1;P1;durP2;ratioP2;P2;SDS_P1;SDS_P2;PMS_P1;PMS_P2;Temp;Humidity;BMP_temperature;BMP_pressure;BME280_temperature;BME280_humidity;BME280_pressure;Samples;Min_cycle;Max_cycle;Signal;HPM_P1;HPM_P2
2022/09/15 00:01:25;;;;;;;14.73;9.02;;;18.60;91.40;;;;;;5055079;28;20036;-72
2022/09/15 00:03:52;;;;;;;12.98;8.57;;;18.50;91.60;;;;;;5055416;28;20404;-72
2022/09/15 00:06:18;;;;;;;13.80;8.88;;;18.50;91.80;;;;;;5054733;28;20472;-72
2022/09/15 00:08:45;;;;;;;10.35;8.25;;;18.40;91.90;;;;;;5055054;28;20468;-72
2022/09/15 00:11:27;;;;;;;12.52;8.48;;;18.30;92.10;;;;;;5054877;28;20032;-72
2022/09/15 00:13:53;;;;;;;11.07;7.77;;;18.30;92.20;;;;;;5055118;28;20021;-72
2022/09/15 00:16:21;;;;;;;8.80;7.03;;;18.30;92.20;;;;;;5055003;28;20033;-72
2022/09/15 00:18:47;;;;;;;12.82;7.50;;;18.30;92.50;;;;;;5054727;28;20388;-72
2022/09/15 00:21:18;;;;;;;10.95;8.13;;;18.20;92.30;;;;;;5054971;28;20452;-72
2022/09/15 00:23:44;;;;;;;11.18;7.53;;;18.20;92.40;;;;;;5054771;28;20025;-72
2022/09/15 00:26:13;;;;;;;14.27;8.80;;;18.20;92.60;;;;;;5054678;28;20035;-72
2022/09/15 00:28:39;;;;;;;12.68;9.27;;;18.20;92.70;;;;;;5054434;28;20119;-72
2022/09/15 00:31:09;;;;;;;11.10;7.65;;;18.20;93.20;;;;;;5054791;28;20032;-72
2022/09/15 00:33:35;;;;;;;15.80;8.70;;;18.20;93.00;;;;;;5054595;28;20029;-72
2022/09/15 00:36:04;;;;;;;13.27;8.98;;;18.10;93.10;;;;;;5054414;28;20032;-72
2022/09/15 00:38:30;;;;;;;14.00;8.70;;;18.00;93.20;;;;;;5054446;28;20408;-72
2022/09/15 00:40:56;;;;;;;10.80;7.28;;;18.00;93.40;;;;;;5054296;28;20039;-72
2022/09/15 00:44:03;;;;;;;9.63;7.65;;;18.00;93.40;;;;;;5054625;28;20021;-72
2022/09/15 00:46:34;;;;;;;11.07;7.93;;;18.10;93.50;;;;;;5052676;28;20033;-72
2022/09/15 00:49:02;;;;;;;12.88;9.32;;;18.20;93.50;;;;;;5054463;28;20029;-72
2022/09/15 00:51:53;;;;;;;11.35;7.00;;;18.20;93.50;;;;;;5053804;28;20032;-72
2022/09/15 00:54:50;;;;;;;13.32;8.02;;;18.20;93.50;;;;;;5054429;28;20033;-73
2022/09/15 00:57:48;;;;;;;11.27;8.00;;;18.30;93.40;;;;;;5053576;28;20401;-72
2022/09/15 01:00:18;;;;;;;10.52;7.70;;;18.30;93.30;;;;;;5052917;28;20094;-72
2022/09/15 01:02:46;;;;;;;7.57;6.80;;;18.20;93.30;;;;;;5053664;28;20033;-72
2022/09/15 01:05:16;;;;;;;7.55;6.75;;;18.20;93.30;;;;;;5054229;28;20033;-72
2022/09/15 01:07:53;;;;;;;9.32;6.35;;;18.20;93.40;;;;;;5053930;28;20100;-72
2022/09/15 01:10:33;;;;;;;10.00;6.43;;;18.20;93.40;;;;;;5054036;28;20028;-72
2022/09/15 01:13:04;;;;;;;8.05;6.40;;;18.20;93.40;;;;;;5053778;28;20107;-72
2022/09/15 01:15:57;;;;;;;10.20;5.57;;;18.30;93.40;;;;;;5053818;28;20028;-72
2022/09/15 01:18:28;;;;;;;7.45;6.07;;;18.30;93.50;;;;;;5053874;28;20024;-72
2022/09/15 01:21:04;;;;;;;10.13;5.93;;;18.40;93.40;;;;;;5053906;28;20120;-72
2022/09/15 01:23:51;;;;;;;10.43;5.68;;;18.30;93.30;;;;;;5053572;28;20021;-72
2022/09/15 01:26:35;;;;;;;8.35;5.65;;;18.40;93.30;;;;;;5053631;28;20528;-72
2022/09/15 01:29:30;;;;;;;7.72;5.60;;;18.40;93.30;;;;;;5053171;28;20056;-72
2022/09/15 01:35:26;;;;;;;8.43;5.68;;;18.50;93.20;;;;;;5052997;28;20059;-72
2022/09/15 01:37:58;;;;;;;7.18;5.40;;;18.50;93.10;;;;;;5053524;28;20047;-72
2022/09/15 01:40:28;;;;;;;8.48;5.60;;;18.50;93.10;;;;;;5053522;28;20033;-72
2022/09/15 01:42:56;;;;;;;8.25;5.05;;;18.50;93.00;;;;;;5053052;28;20074;-72
2022/09/15 01:45:30;;;;;;;7.22;4.32;;;18.50;92.90;;;;;;5053542;28;20033;-72
2022/09/15 01:47:57;;;;;;;9.90;4.95;;;18.50;92.90;;;;;;5053519;28;20376;-72
2022/09/15 01:50:30;;;;;;;7.57;5.30;;;18.50;92.80;;;;;;5053509;28;20175;-72
2022/09/15 01:52:58;;;;;;;8.93;5.22;;;18.50;92.80;;;;;;5053318;28;20021;-72
2022/09/15 01:55:32;;;;;;;6.93;4.55;;;18.50;92.80;;;;;;5053205;28;20032;-72
2022/09/15 01:57:58;;;;;;;8.20;5.10;;;18.60;92.80;;;;;;5052852;28;20495;-72
2022/09/15 02:00:23;;;;;;;9.25;5.25;;;18.50;92.80;;;;;;5053014;28;20033;-72
2022/09/15 02:03:04;;;;;;;7.20;4.63;;;18.50;92.60;;;;;;5053118;28;20433;-72
2022/09/15 02:05:41;;;;;;;10.43;5.47;;;18.60;92.70;;;;;;5053071;28;20055;-72
2022/09/15 02:08:23;;;;;;;9.07;6.03;;;18.60;92.60;;;;;;5053412;28;20040;-72
2022/09/15 02:11:12;;;;;;;;;;;18.50;92.50;;;;;;5054505;28;20033;-72
2022/09/15 02:14:02;;;;;;;10.07;5.22;;;18.50;92.60;;;;;;5051457;28;19930;-72
2022/09/15 02:16:32;;;;;;;11.52;5.85;;;18.50;92.50;;;;;;5057425;28;20025;-72
2022/09/15 02:19:10;;;;;;;8.88;5.65;;;18.50;92.40;;;;;;5056897;28;20024;-72
2022/09/15 02:21:45;;;;;;;9.32;5.13;;;18.40;92.40;;;;;;5057189;28;20059;-72
2022/09/15 02:24:17;;;;;;;8.05;5.25;;;18.30;92.40;;;;;;5056927;28;20021;-72
2022/09/15 02:26:47;;;;;;;6.03;5.05;;;18.30;92.70;;;;;;5057319;28;20155;-72
2022/09/15 02:29:16;;;;;;;7.97;4.72;;;18.30;92.60;;;;;;5056826;28;20040;-72
2022/09/15 02:31:44;;;;;;;4.15;3.35;;;18.20;92.60;;;;;;5057040;28;20025;-72
2022/09/15 02:34:17;;;;;;;7.72;4.15;;;18.20;92.80;;;;;;5057033;28;20025;-72
2022/09/15 02:36:44;;;;;;;5.80;3.70;;;18.20;92.80;;;;;;5056549;28;20021;-72
2022/09/15 02:39:14;;;;;;;9.68;4.25;;;18.20;92.80;;;;;;5056858;28;20041;-72
2022/09/15 02:41:40;;;;;;;12.40;4.82;;;18.20;92.60;;;;;;5056677;28;20024;-72
2022/09/15 02:44:08;;;;;;;4.68;2.95;;;18.20;92.50;;;;;;5056540;28;20041;-72
2022/09/15 02:46:34;;;;;;;7.60;4.05;;;18.20;92.40;;;;;;5056551;28;20025;-72
2022/09/15 02:48:59;;;;;;;10.45;5.03;;;18.20;92.50;;;;;;5056798;28;20032;-72
2022/09/15 02:51:25;;;;;;;8.60;4.80;;;18.10;92.30;;;;;;5056377;28;20507;-72
2022/09/15 02:53:51;;;;;;;7.10;4.00;;;18.10;92.20;;;;;;5056503;28;20049;-72
2022/09/15 02:56:17;;;;;;;6.97;3.78;;;18.10;92.30;;;;;;5056113;28;20486;-72
2022/09/15 02:58:43;;;;;;;6.50;3.28;;;18.10;92.40;;;;;;5056213;28;20029;-72
2022/09/15 03:01:13;;;;;;;6.03;3.60;;;18.00;92.30;;;;;;5056385;28;20037;-72
2022/09/15 03:03:39;;;;;;;4.40;2.70;;;18.00;92.40;;;;;;5056515;28;20036;-72
2022/09/15 03:06:19;;;;;;;5.55;3.05;;;18.10;92.40;;;;;;5056108;28;20139;-72
2022/09/15 03:08:51;;;;;;;10.40;4.75;;;18.10;92.50;;;;;;5056452;28;20025;-72
2022/09/15 03:11:19;;;;;;;9.40;3.70;;;18.10;92.40;;;;;;5056280;28;20102;-72
2022/09/15 03:13:46;;;;;;;4.47;2.08;;;18.10;92.20;;;;;;5056295;28;20029;-72
2022/09/15 03:16:14;;;;;;;5.30;3.08;;;18.20;92.30;;;;;;5056225;28;20079;-72
2022/09/15 03:18:41;;;;;;;6.22;2.83;;;18.10;92.30;;;;;;5055919;28;20369;-72
2022/09/15 03:21:12;;;;;;;8.32;3.58;;;18.20;92.30;;;;;;5055717;28;20408;-72
2022/09/15 03:23:38;;;;;;;5.85;3.45;;;18.20;92.20;;;;;;5056102;28;20028;-72
2022/09/15 03:26:04;;;;;;;3.63;1.83;;;18.20;92.20;;;;;;5055817;28;20491;-72
2022/09/15 03:28:30;;;;;;;3.42;2.85;;;18.30;92.20;;;;;;5055559;28;20045;-72
2022/09/15 03:30:56;;;;;;;4.50;2.00;;;18.30;92.10;;;;;;5055829;28;20060;-72
2022/09/15 03:33:23;;;;;;;3.65;1.60;;;18.30;92.10;;;;;;5055955;28;20049;-72
2022/09/15 03:35:50;;;;;;;8.18;3.22;;;18.30;92.10;;;;;;5055997;28;20349;-72
2022/09/15 03:38:15;;;;;;;4.60;2.10;;;18.30;92.00;;;;;;5055416;28;20031;-72
2022/09/15 03:40:41;;;;;;;5.93;2.70;;;18.30;91.90;;;;;;5055751;28;20033;-72
2022/09/15 03:43:08;;;;;;;7.45;2.45;;;18.30;91.90;;;;;;5055429;28;20392;-72
2022/09/15 03:45:36;;;;;;;4.65;1.95;;;18.20;91.90;;;;;;5055670;28;20102;-72
2022/09/15 03:48:04;;;;;;;5.97;2.47;;;18.30;91.70;;;;;;5055459;28;20025;-72
2022/09/15 03:50:30;;;;;;;3.75;1.77;;;18.30;91.60;;;;;;5055382;28;20025;-72
2022/09/15 03:52:57;;;;;;;5.45;2.05;;;18.30;91.60;;;;;;5055502;28;20028;-72
2022/09/15 03:55:23;;;;;;;9.85;3.03;;;18.30;91.60;;;;;;5055203;28;20095;-72
2022/09/15 03:57:48;;;;;;;5.35;2.50;;;18.30;91.50;;;;;;5055465;28;20457;-72
2022/09/15 04:00:14;;;;;;;8.80;2.83;;;18.20;91.50;;;;;;5055293;28;20037;-72
2022/09/15 04:02:39;;;;;;;7.00;2.83;;;18.20;91.50;;;;;;5055411;28;20048;-72
2022/09/15 04:05:05;;;;;;;9.88;2.88;;;18.20;91.50;;;;;;5055099;28;20388;-72
2022/09/15 04:07:31;;;;;;;5.35;2.33;;;18.10;91.80;;;;;;5054941;28;20044;-72
2022/09/15 04:09:57;;;;;;;3.97;2.60;;;18.00;91.70;;;;;;5054942;28;20488;-72
2022/09/15 04:12:22;;;;;;;6.82;2.60;;;18.00;91.80;;;;;;5054911;28;20053;-72
2022/09/15 04:14:48;;;;;;;4.72;2.22;;;18.10;91.80;;;;;;5055149;28;20025;-72
2022/09/15 04:17:15;;;;;;;5.80;2.45;;;18.00;91.80;;;;;;5054662;28;20522;-72
2022/09/15 04:19:40;;;;;;;5.30;2.40;;;18.10;91.90;;;;;;5054947;28;20086;-72
2022/09/15 04:22:06;;;;;;;4.80;2.40;;;18.00;91.90;;;;;;5054935;28;20021;-72
2022/09/15 04:24:32;;;;;;;4.30;1.83;;;18.10;92.00;;;;;;5055023;28;20067;-72
2022/09/15 04:26:57;;;;;;;3.70;1.98;;;18.10;91.90;;;;;;5054427;28;20432;-72
2022/09/15 04:29:23;;;;;;;5.85;2.22;;;18.10;92.00;;;;;;5054534;28;20028;-72
2022/09/15 04:31:49;;;;;;;4.07;2.15;;;18.20;91.90;;;;;;5054660;28;20132;-72
2022/09/15 04:34:15;;;;;;;5.60;2.00;;;18.20;91.90;;;;;;5053608;28;20116;-72
2022/09/15 04:36:40;;;;;;;2.33;1.10;;;18.20;91.80;;;;;;5054691;28;20018;-72
2022/09/15 04:39:06;;;;;;;4.53;2.08;;;18.20;91.80;;;;;;5054535;28;20033;-72
2022/09/15 04:41:35;;;;;;;5.60;2.45;;;18.20;91.90;;;;;;5054535;28;20021;-72
2022/09/15 04:44:01;;;;;;;3.42;1.48;;;18.20;91.80;;;;;;5054377;28;20021;-72
2022/09/15 04:46:27;;;;;;;4.13;1.52;;;18.30;91.80;;;;;;5054380;28;20460;-72
2022/09/15 04:48:53;;;;;;;4.78;1.95;;;18.30;91.80;;;;;;5054105;28;20033;-72
2022/09/15 04:51:20;;;;;;;6.88;2.10;;;18.30;91.80;;;;;;5054440;28;20035;-72
2022/09/15 04:53:47;;;;;;;5.32;2.05;;;18.30;91.70;;;;;;5054456;28;20035;-72
2022/09/15 04:56:15;;;;;;;3.95;1.73;;;18.30;91.70;;;;;;5054179;28;20051;-72
2022/09/15 04:58:43;;;;;;;4.78;1.48;;;18.30;91.70;;;;;;5053780;28;20071;-72
2022/09/15 05:01:10;;;;;;;3.03;1.23;;;18.30;91.70;;;;;;5054003;28;20039;-72
2022/09/15 05:03:36;;;;;;;4.28;1.52;;;18.30;91.80;;;;;;5054059;28;20021;-72
2022/09/15 05:06:04;;;;;;;6.93;2.03;;;18.30;91.50;;;;;;5053772;28;20032;-72
2022/09/15 05:08:30;;;;;;;4.40;1.48;;;18.30;91.40;;;;;;5053792;28;20027;-72
2022/09/15 05:11:04;;;;;;;5.28;1.45;;;18.20;91.70;;;;;;5053948;28;20107;-72
2022/09/15 05:13:29;;;;;;;2.10;0.80;;;18.20;91.50;;;;;;5053871;28;20087;-73
2022/09/15 05:15:55;;;;;;;6.45;1.80;;;18.20;91.60;;;;;;5053349;28;20025;-72
2022/09/15 05:18:21;;;;;;;5.25;2.08;;;18.20;91.50;;;;;;5053795;28;20032;-72
2022/09/15 05:20:46;;;;;;;5.60;1.90;;;18.10;91.50;;;;;;5053483;28;20025;-73
2022/09/15 05:23:12;;;;;;;9.63;2.00;;;18.10;91.60;;;;;;5053302;28;20025;-73
2022/09/15 05:25:38;;;;;;;5.38;1.48;;;18.00;91.70;;;;;;5053681;28;20223;-73
2022/09/15 05:28:04;;;;;;;5.00;1.35;;;18.00;91.80;;;;;;5053293;28;20037;-72
2022/09/15 05:30:30;;;;;;;5.03;1.17;;;18.10;91.70;;;;;;5053197;28;20025;-72
2022/09/15 05:32:56;;;;;;;6.95;1.40;;;18.10;91.60;;;;;;5053106;28;20028;-72
2022/09/15 05:35:22;;;;;;;2.72;1.15;;;18.20;91.50;;;;;;5053264;28;20079;-73
2022/09/15 05:37:48;;;;;;;6.38;1.38;;;18.20;91.30;;;;;;5053256;28;20101;-73
2022/09/15 05:40:14;;;;;;;4.20;1.27;;;18.20;91.20;;;;;;5053314;28;20447;-72
2022/09/15 05:42:40;;;;;;;7.00;1.85;;;18.20;91.40;;;;;;5053321;28;20082;-73
2022/09/15 05:45:06;;;;;;;3.92;1.30;;;18.20;90.90;;;;;;5052002;28;20029;-72
2022/09/15 05:47:32;;;;;;;6.28;1.60;;;18.10;90.90;;;;;;5053418;28;20029;-72
2022/09/15 05:49:57;;;;;;;7.07;1.17;;;18.20;91.00;;;;;;5053277;28;20039;-73
2022/09/15 05:52:23;;;;;;;5.20;1.85;;;18.20;91.00;;;;;;5052882;28;20027;-72
2022/09/15 05:54:48;;;;;;;7.97;2.03;;;18.00;90.90;;;;;;5053306;28;20055;-73
2022/09/15 05:57:14;;;;;;;4.53;1.30;;;18.10;91.00;;;;;;5052895;28;20017;-72
2022/09/15 05:59:40;;;;;;;4.88;1.35;;;18.10;91.00;;;;;;5052885;28;20154;-72
2022/09/15 06:02:09;;;;;;;8.65;1.60;;;18.10;91.00;;;;;;5053219;28;20036;-70
2022/09/15 06:04:34;;;;;;;5.00;1.48;;;18.10;91.00;;;;;;5053239;28;20067;-72
2022/09/15 06:07:00;;;;;;;4.10;0.95;;;18.10;91.00;;;;;;5053008;28;20445;-72
2022/09/15 06:09:26;;;;;;;7.07;1.40;;;18.00;91.00;;;;;;5052914;28;20029;-73
2022/09/15 06:11:52;;;;;;;5.13;1.63;;;18.10;90.90;;;;;;5052863;28;20362;-73
2022/09/15 06:14:17;;;;;;;2.75;1.25;;;18.10;90.80;;;;;;5052900;28;20029;-73
2022/09/15 06:16:43;;;;;;;8.40;1.73;;;18.10;91.00;;;;;;5053045;28;20418;-72
2022/09/15 06:19:09;;;;;;;8.65;1.92;;;18.00;90.90;;;;;;5052872;28;20053;-73
2022/09/15 06:21:34;;;;;;;6.45;1.90;;;17.80;91.00;;;;;;5052849;28;20021;-72
2022/09/15 06:24:02;;;;;;;6.82;1.70;;;17.70;91.30;;;;;;5052698;28;20048;-72
2022/09/15 06:26:28;;;;;;;11.80;2.00;;;17.70;91.40;;;;;;5053004;28;20040;-72
2022/09/15 06:28:55;;;;;;;6.72;1.55;;;17.70;91.50;;;;;;5052202;28;20041;-72
2022/09/15 06:31:21;;;;;;;5.57;1.52;;;17.80;91.60;;;;;;5053081;28;20071;-73
2022/09/15 06:33:50;;;;;;;8.40;1.80;;;17.80;91.60;;;;;;5052477;28;20021;-73
2022/09/15 06:36:17;;;;;;;4.72;1.60;;;17.90;91.50;;;;;;5052663;28;20040;-73
2022/09/15 06:38:44;;;;;;;5.18;1.60;;;17.90;91.30;;;;;;5052629;28;20350;-73
2022/09/15 06:41:10;;;;;;;4.88;1.20;;;18.00;91.30;;;;;;5052860;28;20033;-74
2022/09/15 06:43:36;;;;;;;5.13;1.30;;;18.00;91.20;;;;;;5052495;28;20032;-73
2022/09/15 06:46:06;;;;;;;9.90;1.70;;;18.00;91.30;;;;;;5052565;28;20021;-73
2022/09/15 06:48:32;;;;;;;5.70;1.50;;;18.00;91.20;;;;;;5052598;28;20033;-73
2022/09/15 06:50:59;;;;;;;5.97;1.02;;;18.10;91.30;;;;;;5052311;28;20025;-73
2022/09/15 06:53:29;;;;;;;7.03;1.25;;;18.00;91.20;;;;;;5052709;28;20063;-73
2022/09/15 06:55:54;;;;;;;3.05;0.80;;;18.10;91.10;;;;;;5052342;28;20040;-73
2022/09/15 06:58:20;;;;;;;3.50;1.00;;;18.10;90.90;;;;;;5055900;28;20473;-73
2022/09/15 07:00:46;;;;;;;3.53;1.13;;;18.10;90.70;;;;;;5056155;28;20045;-73
2022/09/15 07:03:12;;;;;;;7.00;1.20;;;18.10;90.60;;;;;;5056289;28;20021;-73
2022/09/15 07:05:37;;;;;;;5.97;1.20;;;18.10;90.60;;;;;;5055900;28;20480;-73
2022/09/15 07:08:03;;;;;;;5.65;0.98;;;18.20;90.50;;;;;;5056093;28;20017;-73
2022/09/15 07:10:28;;;;;;;3.40;0.90;;;18.10;90.40;;;;;;5055941;28;20032;-73
2022/09/15 07:12:54;;;;;;;7.25;0.80;;;18.20;90.50;;;;;;5055706;28;20111;-73
2022/09/15 07:15:22;;;;;;;4.03;0.93;;;18.20;90.30;;;;;;5055844;28;20048;-73
2022/09/15 07:17:47;;;;;;;5.05;0.70;;;18.20;90.30;;;;;;5056337;28;20029;-73
2022/09/15 07:20:13;;;;;;;4.47;0.70;;;18.20;90.40;;;;;;5056011;28;20059;-73
2022/09/15 07:22:39;;;;;;;3.83;0.82;;;18.20;90.10;;;;;;5056198;28;20084;-73
2022/09/15 07:25:05;;;;;;;4.90;0.90;;;18.20;90.00;;;;;;5055827;28;20048;-73
2022/09/15 07:27:30;;;;;;;3.83;0.60;;;18.20;90.00;;;;;;5055539;28;20083;-73
2022/09/15 07:29:57;;;;;;;5.60;0.70;;;18.20;89.90;;;;;;5055968;28;20064;-73
2022/09/15 07:32:23;;;;;;;6.55;1.30;;;18.20;90.10;;;;;;5055721;28;20025;-73
2022/09/15 07:34:50;;;;;;;3.40;0.65;;;18.20;89.90;;;;;;5055544;28;20051;-73
2022/09/15 07:37:16;;;;;;;4.80;0.63;;;18.10;90.00;;;;;;5055680;28;20033;-73
2022/09/15 07:39:42;;;;;;;4.22;0.60;;;18.20;90.00;;;;;;5055640;28;20040;-73
2022/09/15 07:42:07;;;;;;;3.97;0.57;;;18.20;89.90;;;;;;5055512;28;20021;-73
2022/09/15 07:44:33;;;;;;;6.72;0.50;;;18.20;89.80;;;;;;5055230;28;20500;-71
2022/09/15 07:46:58;;;;;;;3.50;0.50;;;18.20;89.50;;;;;;5054752;28;20109;-72
2022/09/15 07:49:24;;;;;;;4.15;0.60;;;18.30;89.40;;;;;;5055188;28;20021;-72
2022/09/15 07:51:50;;;;;;;3.88;0.50;;;18.40;89.50;;;;;;5055112;28;20028;-73
2022/09/15 07:54:15;;;;;;;3.30;0.70;;;18.40;87.80;;;;;;5055048;28;20021;-72
2022/09/15 07:56:41;;;;;;;4.75;0.90;;;18.50;87.30;;;;;;5055036;28;20090;-72
2022/09/15 07:59:06;;;;;;;6.35;0.60;;;18.50;86.70;;;;;;5055188;28;20358;-72
2022/09/15 08:01:32;;;;;;;3.30;0.50;;;18.50;86.90;;;;;;5055141;28;20028;-73
2022/09/15 08:03:58;;;;;;;5.32;1.10;;;18.50;86.90;;;;;;5055066;28;20078;-72
2022/09/15 08:06:25;;;;;;;5.82;1.17;;;18.50;87.10;;;;;;5054908;28;20021;-73
2022/09/15 08:08:51;;;;;;;6.43;0.75;;;18.50;87.20;;;;;;5053893;28;20074;-73
2022/09/15 08:11:19;;;;;;;2.78;0.45;;;18.40;87.50;;;;;;5054834;28;20021;-73
2022/09/15 08:13:49;;;;;;;4.70;0.75;;;18.50;87.50;;;;;;5055313;28;20048;-73
2022/09/15 08:16:18;;;;;;;5.20;0.70;;;18.40;86.90;;;;;;5054829;28;20099;-72
2022/09/15 08:18:44;;;;;;;2.97;0.70;;;18.30;87.50;;;;;;5054812;28;20028;-72
2022/09/15 08:21:15;;;;;;;7.00;0.55;;;18.40;87.70;;;;;;5053105;28;20033;-72
2022/09/15 08:23:41;;;;;;;4.22;0.50;;;18.40;87.70;;;;;;5055115;28;20443;-72
2022/09/15 08:26:08;;;;;;;5.90;0.80;;;18.50;87.70;;;;;;5054910;28;20032;-72
2022/09/15 08:28:35;;;;;;;6.72;0.85;;;18.50;87.50;;;;;;5054429;28;20060;-72
2022/09/15 08:31:02;;;;;;;4.28;0.60;;;18.50;87.60;;;;;;5054611;28;20025;-72
2022/09/15 08:33:29;;;;;;;3.88;0.47;;;18.50;87.80;;;;;;5054264;28;20469;-74
2022/09/15 08:36:00;;;;;;;8.55;0.95;;;18.50;87.90;;;;;;5054445;28;20441;-73
2022/09/15 08:38:25;;;;;;;3.40;0.70;;;18.60;87.60;;;;;;5054619;28;20408;-73
2022/09/15 08:41:01;;;;;;;3.85;0.50;;;18.60;87.60;;;;;;5054592;28;20032;-76
2022/09/15 08:43:34;;;;;;;5.78;0.80;;;18.60;87.70;;;;;;5066311;28;20033;-73
2022/09/15 08:46:06;;;;;;;6.57;0.88;;;18.70;87.30;;;;;;5055959;28;20079;-73
2022/09/15 08:48:48;;;;;;;7.30;0.70;;;18.60;86.80;;;;;;5055322;28;20033;-73
2022/09/15 08:51:25;;;;;;;5.80;0.70;;;18.60;87.00;;;;;;5054264;28;20098;-73
2022/09/15 08:53:58;;;;;;;4.43;0.75;;;18.50;86.90;;;;;;5059738;28;20428;-72
2022/09/15 08:56:26;;;;;;;6.43;0.50;;;18.50;86.80;;;;;;5058151;28;20118;-73
2022/09/15 08:58:52;;;;;;;5.93;0.50;;;18.50;87.20;;;;;;5057426;28;20037;-73
2022/09/15 09:01:29;;;;;;;5.72;0.40;;;18.50;86.80;;;;;;5053617;28;20032;-73
2022/09/15 09:04:15;;;;;;;4.68;0.57;;;18.50;86.50;;;;;;5054301;28;20095;-73
2022/09/15 09:06:46;;;;;;;4.35;0.30;;;18.50;86.20;;;;;;5065885;28;20032;-73
2022/09/15 09:09:32;;;;;;;5.60;0.40;;;18.60;86.20;;;;;;5049424;28;20016;-72
2022/09/15 09:12:29;;;;;;;4.55;0.70;;;18.70;85.70;;;;;;5054008;28;20055;-73
2022/09/15 09:15:07;;;;;;;3.42;0.25;;;18.80;85.60;;;;;;5050144;28;20388;-73
2022/09/15 09:17:51;;;;;;;6.57;0.57;;;18.90;85.30;;;;;;5056164;28;20114;-73
2022/09/15 09:20:28;;;;;;;3.10;0.25;;;18.90;85.20;;;;;;5051423;28;20044;-72
2022/09/15 09:22:54;;;;;;;4.75;0.30;;;19.00;84.50;;;;;;5060877;28;20013;-72
2022/09/15 09:25:21;;;;;;;6.00;0.30;;;19.00;82.10;;;;;;5059806;28;20031;-72
2022/09/15 09:27:48;;;;;;;3.40;0.35;;;19.00;82.00;;;;;;5055362;28;20036;-72
2022/09/15 09:30:18;;;;;;;6.90;0.65;;;19.00;81.80;;;;;;5052829;28;20430;-72
2022/09/15 09:32:46;;;;;;;2.78;0.30;;;19.00;81.60;;;;;;5065428;28;20502;-72
2022/09/15 09:35:29;;;;;;;2.97;0.35;;;19.00;81.50;;;;;;5067882;28;20090;-72
2022/09/15 09:37:55;;;;;;;3.80;0.50;;;19.00;80.80;;;;;;5060892;28;20032;-72
2022/09/15 09:40:21;;;;;;;4.97;0.40;;;18.90;81.20;;;;;;5052914;28;20454;-72
2022/09/15 09:42:47;;;;;;;6.70;0.38;;;18.90;81.10;;;;;;5061670;28;20028;-72
2022/09/15 09:45:17;;;;;;;2.92;0.40;;;18.90;80.70;;;;;;5067667;28;20077;-73
2022/09/15 09:47:43;;;;;;;4.13;0.30;;;18.90;81.10;;;;;;5069578;28;20024;-72
2022/09/15 09:50:34;;;;;;;6.38;0.30;;;18.90;80.40;;;;;;5059510;28;20025;-73
2022/09/15 09:53:25;;;;;;;3.83;0.30;;;18.90;80.70;;;;;;5053472;28;20425;-72
2022/09/15 09:55:53;;;;;;;4.10;0.70;;;18.80;80.10;;;;;;5054900;28;20108;-72
2022/09/15 09:58:23;;;;;;;5.35;0.40;;;18.70;80.40;;;;;;5051987;28;20044;-72
2022/09/15 10:00:50;;;;;;;4.68;0.30;;;18.60;81.20;;;;;;5058206;28;20033;-73
2022/09/15 10:03:21;;;;;;;2.90;0.30;;;18.70;81.70;;;;;;5060504;28;20074;-72
2022/09/15 10:06:28;;;;;;;2.33;0.20;;;18.70;82.00;;;;;;5053115;28;20029;-72
2022/09/15 10:08:57;;;;;;;5.30;0.30;;;18.80;82.80;;;;;;5050839;28;20029;-72
2022/09/15 10:11:46;;;;;;;3.22;0.45;;;18.90;81.70;;;;;;5050896;28;20389;-72
2022/09/15 10:14:20;;;;;;;2.50;0.20;;;19.00;81.90;;;;;;5052258;28;20366;-72
2022/09/15 10:17:01;;;;;;;5.32;0.40;;;19.00;82.10;;;;;;5052686;28;20083;-72
2022/09/15 10:19:33;;;;;;;3.17;0.30;;;19.10;82.00;;;;;;5052653;28;20047;-72
2022/09/15 10:22:00;;;;;;;3.75;0.32;;;19.10;80.70;;;;;;5052623;28;20018;-72
2022/09/15 10:24:26;;;;;;;2.65;0.55;;;19.10;80.30;;;;;;5052288;28;20041;-72
2022/09/15 10:27:05;;;;;;;4.72;0.30;;;19.00;80.00;;;;;;5052411;28;20021;-72
2022/09/15 10:29:38;;;;;;;2.15;0.20;;;19.00;79.80;;;;;;5053606;28;20078;-72
2022/09/15 10:32:16;;;;;;;4.57;0.30;;;19.00;80.50;;;;;;5056680;28;20033;-72
2022/09/15 10:34:42;;;;;;;4.50;1.00;;;19.00;81.10;;;;;;5073232;28;20487;-72
2022/09/15 10:37:25;;;;;;;3.63;0.35;;;19.00;81.40;;;;;;5070932;28;20025;-72
2022/09/15 10:39:55;;;;;;;4.38;0.47;;;19.00;81.50;;;;;;5059256;28;20388;-72
2022/09/15 10:42:51;;;;;;;4.13;0.40;;;18.90;82.10;;;;;;5059759;28;20354;-73
2022/09/15 10:45:31;;;;;;;9.52;0.30;;;18.70;82.80;;;;;;5060653;28;20104;-72
2022/09/15 10:48:10;;;;;;;5.30;0.38;;;18.60;83.90;;;;;;5056967;28;20039;-74
2022/09/15 10:51:04;;;;;;;5.80;0.57;;;18.60;83.70;;;;;;5056986;28;20032;-73
2022/09/15 10:53:54;;;;;;;2.28;0.50;;;18.50;82.60;;;;;;5057137;28;20528;-73
2022/09/15 10:56:39;;;;;;;2.45;0.25;;;18.50;82.90;;;;;;5063096;28;20024;-72
2022/09/15 10:59:26;;;;;;;2.20;0.57;;;18.50;83.20;;;;;;5068237;28;20395;-72
2022/09/15 11:02:33;;;;;;;2.50;0.17;;;18.40;82.80;;;;;;5056192;28;20025;-72
2022/09/15 11:05:09;;;;;;;3.85;0.30;;;18.40;82.20;;;;;;4994510;28;20034;-72
2022/09/15 11:08:02;;;;;;;1.88;0.20;;;18.40;82.40;;;;;;5047909;28;20056;-72
2022/09/15 11:10:31;;;;;;;;;;;18.60;82.50;;;;;;5056755;28;20036;-72
2022/09/15 11:13:03;;;;;;;4.75;0.22;;;18.70;82.20;;;;;;5055886;28;20291;-72
2022/09/15 11:15:36;;;;;;;4.07;0.30;;;18.70;81.40;;;;;;5055969;28;20027;-72
2022/09/15 11:18:29;;;;;;;4.07;0.70;;;18.70;80.50;;;;;;5055746;28;20495;-72
2022/09/15 11:21:20;;;;;;;2.00;0.30;;;18.70;80.70;;;;;;5056093;28;20139;-73
2022/09/15 11:23:55;;;;;;;4.03;0.30;;;18.70;81.20;;;;;;5056021;28;20107;-72
2022/09/15 11:26:28;;;;;;;6.20;0.40;;;18.80;80.90;;;;;;5055804;28;20029;-72
2022/09/15 11:29:00;;;;;;;2.17;0.30;;;18.80;80.10;;;;;;5055527;28;20060;-72
2022/09/15 11:31:33;;;;;;;3.58;0.60;;;18.80;79.70;;;;;;5055748;28;20175;-72
2022/09/15 11:34:16;;;;;;;4.68;0.30;;;18.80;79.80;;;;;;5055863;28;20086;-72
2022/09/15 11:37:03;;;;;;;3.00;0.20;;;18.80;79.80;;;;;;5055685;28;20243;-72
2022/09/15 11:40:10;;;;;;;5.53;0.68;;;18.90;79.50;;;;;;5055372;28;20542;-71
2022/09/15 11:42:51;;;;;;;4.57;0.40;;;19.00;79.40;;;;;;5055010;28;20123;-71
2022/09/15 11:45:25;;;;;;;3.97;0.20;;;19.00;78.70;;;;;;5054031;28;20025;-71
2022/09/15 11:48:01;;;;;;;2.63;0.30;;;19.00;78.50;;;;;;5056321;28;20035;-71
2022/09/15 11:50:31;;;;;;;5.07;0.65;;;19.00;78.50;;;;;;5054957;28;20025;-71
2022/09/15 11:53:12;;;;;;;4.47;0.30;;;19.00;78.70;;;;;;5057062;28;20087;-71
2022/09/15 11:56:08;;;;;;;3.42;0.65;;;19.10;77.40;;;;;;5063067;28;20131;-71
2022/09/15 11:59:00;;;;;;;4.63;0.30;;;19.20;77.70;;;;;;5058229;28;20099;-72
2022/09/15 12:01:37;;;;;;;5.78;0.77;;;19.30;78.10;;;;;;5054319;28;20048;-71
2022/09/15 12:04:24;;;;;;;5.20;0.55;;;19.40;76.80;;;;;;5070473;28;20024;-72
2022/09/15 12:07:03;;;;;;;4.72;0.40;;;19.50;76.70;;;;;;5069228;28;20384;-72
2022/09/15 12:09:29;;;;;;;4.68;0.40;;;19.70;77.00;;;;;;5054682;28;20040;-73
2022/09/15 12:12:00;;;;;;;2.35;0.30;;;19.90;74.50;;;;;;5071316;28;20020;-73
2022/09/15 12:14:30;;;;;;;6.65;0.60;;;20.10;73.50;;;;;;5055838;28;20064;-73
2022/09/15 12:16:57;;;;;;;1.92;0.20;;;20.20;73.10;;;;;;5065955;28;20024;-72
2022/09/15 12:19:43;;;;;;;5.43;0.68;;;20.40;73.20;;;;;;5061522;28;20472;-72
2022/09/15 12:22:18;;;;;;;5.95;0.70;;;20.60;71.60;;;;;;5056789;28;20064;-72
2022/09/15 12:25:06;;;;;;;4.45;0.40;;;20.60;71.70;;;;;;5053748;28;20029;-72
2022/09/15 12:27:32;;;;;;;5.82;0.70;;;20.50;71.20;;;;;;5067400;28;20041;-72
2022/09/15 12:29:59;;;;;;;4.60;0.70;;;20.50;70.70;;;;;;5064804;28;20023;-72
2022/09/15 12:32:28;;;;;;;5.25;0.57;;;20.60;71.50;;;;;;5071378;28;20044;-73
2022/09/15 12:34:56;;;;;;;4.35;0.50;;;20.70;71.10;;;;;;5062963;28;20021;-73
2022/09/15 12:37:23;;;;;;;4.72;0.30;;;20.60;70.10;;;;;;5070175;28;20032;-72
2022/09/15 12:39:49;;;;;;;1.85;0.50;;;20.50;69.80;;;;;;5071312;28;20029;-72
2022/09/15 12:42:20;;;;;;;4.28;0.60;;;20.30;69.90;;;;;;5062180;28;20464;-72
2022/09/15 12:44:50;;;;;;;6.45;0.50;;;20.10;70.50;;;;;;5059740;28;20036;-72
2022/09/15 12:47:33;;;;;;;3.30;0.50;;;20.00;70.70;;;;;;5065740;28;20021;-72
2022/09/15 12:50:14;;;;;;;;;;;19.90;71.30;;;;;;5057390;28;20020;-75
2022/09/15 12:53:01;;;;;;;3.72;0.52;;;19.80;71.70;;;;;;5065208;28;19908;-74
2022/09/15 12:55:36;;;;;;;3.63;0.43;;;19.70;72.00;;;;;;5067450;28;20036;-73
2022/09/15 12:58:14;;;;;;;3.60;0.30;;;19.70;69.00;;;;;;5073874;28;20482;-73
2022/09/15 13:00:44;;;;;;;1.52;0.30;;;19.80;67.50;;;;;;5073650;28;20048;-73
2022/09/15 13:03:39;;;;;;;2.50;0.20;;;19.90;66.60;;;;;;5074212;28;20021;-73
2022/09/15 13:06:27;;;;;;;3.50;0.20;;;20.10;65.00;;;;;;5073874;28;20024;-73
2022/09/15 13:08:54;;;;;;;2.80;0.30;;;20.40;64.10;;;;;;5073664;28;20081;-73
2022/09/15 13:11:33;;;;;;;4.15;0.40;;;20.60;63.30;;;;;;5073718;28;20025;-73